Time;durP1;ratioP1;P1;durP2;ratioP2;P2;SDS_P1;SDS_P2;PMS_P1;PMS_P2;Temp;Humidity;BMP_temperature;BMP_pressure;BME280_temperature;BME280_humidity;BME280_pressure;Samples;Min_cycle;Max_cycle;Signal;HPM_P1;HPM_P2
2023/02/21 02:15:26;;;;;;;4.60;2.53;;;6.40;99.90;;;;;;5080977;28;20024;-78
2023/02/21 02:18:27;;;;;;;6.25;2.13;;;6.30;99.90;;;;;;5087081;28;20504;-78
2023/02/21 02:21:07;;;;;;;8.40;2.80;;;6.30;99.90;;;;;;5081560;28;20055;-78
2023/02/21 02:23:43;;;;;;;7.13;2.60;;;6.30;99.90;;;;;;5081086;28;20028;-78
2023/02/21 02:26:30;;;;;;;7.82;2.95;;;6.30;99.90;;;;;;5086953;28;20484;-78
2023/02/21 02:29:02;;;;;;;6.28;2.55;;;6.40;99.90;;;;;;5081172;28;20016;-79
2023/02/21 02:32:05;;;;;;;4.30;2.70;;;6.40;99.90;;;;;;5086475;28;20031;-78
2023/02/21 02:34:50;;;;;;;3.83;2.47;;;6.40;99.90;;;;;;5079051;28;20075;-78
2023/02/21 02:37:45;;;;;;;5.53;2.58;;;6.40;99.90;;;;;;5082475;28;20025;-78
2023/02/21 02:40:25;;;;;;;6.70;2.30;;;6.40;99.90;;;;;;5076412;28;20174;-78
2023/02/21 02:43:16;;;;;;;6.30;2.65;;;6.40;99.90;;;;;;5087140;28;20020;-79
2023/02/21 02:45:52;;;;;;;6.13;2.47;;;6.40;99.90;;;;;;5081540;28;20039;-77
2023/02/21 02:48:30;;;;;;;5.63;2.25;;;6.50;99.90;;;;;;5089686;28;20027;-78
2023/02/21 02:50:59;;;;;;;4.50;2.95;;;6.50;99.90;;;;;;5086859;28;20023;-78
2023/02/21 02:53:28;;;;;;;5.30;2.42;;;6.50;99.90;;;;;;5085518;28;20039;-77
2023/02/21 02:56:05;;;;;;;4.03;2.17;;;6.50;99.90;;;;;;5085182;28;20077;-78
2023/02/21 02:58:40;;;;;;;5.72;2.58;;;6.60;99.90;;;;;;5079158;28;20032;-79
2023/02/21 03:01:25;;;;;;;5.05;2.45;;;6.60;99.90;;;;;;5095461;28;20489;-79
2023/02/21 03:04:28;;;;;;;5.03;2.22;;;6.60;99.90;;;;;;5086251;28;20520;-78
2023/02/21 03:07:03;;;;;;;5.85;2.38;;;6.60;99.90;;;;;;5084954;28;20047;-79
2023/02/21 03:09:49;;;;;;;3.75;1.75;;;6.50;99.90;;;;;;5087742;28;20020;-78
2023/02/21 03:12:27;;;;;;;5.68;3.03;;;6.50;99.90;;;;;;5083421;28;20027;-77
2023/02/21 03:15:03;;;;;;;5.53;2.38;;;6.50;99.90;;;;;;5089531;28;20050;-79
2023/02/21 03:17:33;;;;;;;6.45;2.03;;;6.50;99.90;;;;;;5085603;28;20821;-78
2023/02/21 03:20:01;;;;;;;4.80;2.45;;;6.50;99.90;;;;;;5071072;28;20164;-80
2023/02/21 03:22:29;;;;;;;7.43;3.45;;;6.50;99.90;;;;;;5086991;28;20059;-79
2023/02/21 03:24:59;;;;;;;8.50;3.30;;;6.50;99.90;;;;;;5070480;28;20028;-78
2023/02/21 03:27:27;;;;;;;6.72;3.05;;;6.50;99.90;;;;;;5068200;28;20028;-79
2023/02/21 03:30:00;;;;;;;5.72;2.83;;;6.60;99.90;;;;;;5083154;28;20036;-78
2023/02/21 03:34:58;;;;;;;6.68;3.53;;;6.50;99.90;;;;;;5084888;28;20032;-78
2023/02/21 03:37:31;;;;;;;3.70;2.70;;;6.60;99.90;;;;;;5087232;28;20028;-78
2023/02/21 03:39:57;;;;;;;5.55;3.00;;;6.60;99.90;;;;;;5088354;28;20404;-79
2023/02/21 03:42:23;;;;;;;5.93;3.15;;;6.60;99.90;;;;;;5085082;28;20024;-78
2023/02/21 03:44:49;;;;;;;7.20;3.25;;;6.70;99.90;;;;;;5085598;28;20062;-78
2023/02/21 03:47:15;;;;;;;8.25;3.63;;;6.70;99.90;;;;;;5084262;28;20069;-77
2023/02/21 03:49:40;;;;;;;6.25;3.63;;;6.70;99.90;;;;;;5054715;28;20102;-78
2023/02/21 03:52:11;;;;;;;8.70;4.13;;;6.70;99.90;;;;;;5066515;28;20090;-77
2023/02/21 03:54:38;;;;;;;6.35;3.88;;;6.70;99.90;;;;;;5084536;28;20043;-78
2023/02/21 03:57:04;;;;;;;10.32;3.78;;;6.70;99.90;;;;;;5083511;28;20405;-78
2023/02/21 03:59:37;;;;;;;6.93;3.17;;;6.80;99.90;;;;;;5084530;28;20028;-78
2023/02/21 04:02:03;;;;;;;10.68;3.85;;;6.80;99.90;;;;;;5088677;28;20074;-78
2023/02/21 04:04:31;;;;;;;7.40;3.40;;;6.80;99.90;;;;;;5084700;28;20058;-78
2023/02/21 04:07:05;;;;;;;7.35;3.70;;;6.80;99.90;;;;;;5086843;28;20870;-78
2023/02/21 04:09:31;;;;;;;10.65;4.18;;;6.80;99.90;;;;;;5071146;28;20091;-78
2023/02/21 04:11:57;;;;;;;11.38;4.07;;;6.70;99.90;;;;;;5071763;28;20550;-78
2023/02/21 04:14:24;;;;;;;8.27;3.60;;;6.70;99.90;;;;;;5084114;28;20050;-77
2023/02/21 04:16:50;;;;;;;5.80;3.53;;;6.70;99.90;;;;;;5084626;28;20024;-78
2023/02/21 04:19:16;;;;;;;9.27;3.92;;;6.70;99.90;;;;;;5084838;28;20020;-78
2023/02/21 04:21:42;;;;;;;7.35;3.40;;;6.70;99.90;;;;;;5086307;28;20500;-78
2023/02/21 04:24:09;;;;;;;7.78;3.95;;;6.70;99.90;;;;;;5082221;28;20037;-78
2023/02/21 04:26:35;;;;;;;4.03;2.83;;;6.60;99.90;;;;;;5070261;28;20040;-78
2023/02/21 04:29:02;;;;;;;8.20;3.92;;;6.60;99.90;;;;;;5080990;28;20085;-78
2023/02/21 04:31:28;;;;;;;7.70;4.15;;;6.60;99.90;;;;;;5083429;28;20069;-79
2023/02/21 04:33:53;;;;;;;9.32;3.45;;;6.60;99.90;;;;;;5083539;28;20100;-78
2023/02/21 04:36:22;;;;;;;7.63;3.55;;;6.60;99.90;;;;;;5061052;28;20570;-77
2023/02/21 04:38:49;;;;;;;6.63;3.40;;;6.60;99.90;;;;;;5066343;28;20024;-78
2023/02/21 04:41:16;;;;;;;7.38;3.10;;;6.60;99.90;;;;;;5086647;28;20089;-78
2023/02/21 04:43:43;;;;;;;7.50;3.55;;;6.60;99.90;;;;;;5083975;28;20440;-78
2023/02/21 04:46:10;;;;;;;8.45;3.45;;;6.60;99.90;;;;;;5081120;28;20036;-78
2023/02/21 04:48:35;;;;;;;6.97;3.63;;;6.60;99.90;;;;;;5083497;28;20024;-78
2023/02/21 04:51:01;;;;;;;7.07;3.08;;;6.60;99.90;;;;;;5089334;28;20032;-78
2023/02/21 04:53:27;;;;;;;6.30;3.53;;;6.60;99.90;;;;;;5070138;28;20422;-78
2023/02/21 04:55:53;;;;;;;5.78;2.85;;;6.60;99.90;;;;;;5086072;28;20118;-78
2023/02/21 04:58:18;;;;;;;6.93;2.63;;;6.50;99.90;;;;;;5087890;28;20050;-78
2023/02/21 05:00:44;;;;;;;4.90;2.83;;;6.60;99.90;;;;;;5088099;28;20028;-78
2023/02/21 05:03:10;;;;;;;7.25;3.42;;;6.60;99.90;;;;;;5088788;28;20111;-79
2023/02/21 05:05:36;;;;;;;4.82;2.40;;;6.60;99.90;;;;;;5082744;28;20043;-78
2023/02/21 05:08:02;;;;;;;4.57;2.40;;;6.60;99.90;;;;;;5087644;28;20028;-78
2023/02/21 05:10:28;;;;;;;7.35;3.67;;;6.60;99.90;;;;;;5089721;28;20546;-78
2023/02/21 05:12:53;;;;;;;5.28;2.90;;;6.60;99.90;;;;;;5091324;28;20085;-78
2023/02/21 05:15:19;;;;;;;4.85;2.67;;;6.60;99.90;;;;;;5072980;28;20032;-78
2023/02/21 05:17:46;;;;;;;5.82;2.88;;;6.60;99.90;;;;;;5088410;28;20039;-78
2023/02/21 05:20:11;;;;;;;6.38;3.08;;;6.60;99.90;;;;;;5066734;28;20037;-79
2023/02/21 05:22:41;;;;;;;6.97;3.53;;;6.60;99.90;;;;;;5089109;28;20071;-78
2023/02/21 05:25:17;;;;;;;6.57;2.88;;;6.60;99.90;;;;;;5089736;28;20530;-78
2023/02/21 05:27:44;;;;;;;4.80;2.92;;;6.50;99.90;;;;;;5090226;28;20498;-78
2023/02/21 05:30:10;;;;;;;15.27;4.40;;;6.50;99.90;;;;;;5082331;28;20031;-78
2023/02/21 05:32:36;;;;;;;5.55;3.35;;;6.50;99.90;;;;;;5049452;28;20464;-78
2023/02/21 05:35:03;;;;;;;10.30;3.10;;;6.50;99.90;;;;;;5092012;28;20064;-78
2023/02/21 05:37:29;;;;;;;13.13;3.78;;;6.50;99.90;;;;;;5087809;28;20047;-78
2023/02/21 05:39:55;;;;;;;13.38;4.53;;;6.40;99.90;;;;;;5076522;28;20028;-78
2023/02/21 05:42:20;;;;;;;6.15;3.42;;;6.40;99.90;;;;;;5084050;28;20029;-78
2023/02/21 05:44:47;;;;;;;6.10;3.65;;;6.50;99.90;;;;;;5089233;28;20025;-78
2023/02/21 05:47:13;;;;;;;6.10;3.40;;;6.50;99.90;;;;;;5086812;28;20020;-78
2023/02/21 05:49:40;;;;;;;5.35;3.58;;;6.40;99.90;;;;;;5088952;28;20519;-78
2023/02/21 05:52:09;;;;;;;9.23;3.83;;;6.40;99.90;;;;;;5087399;28;20112;-77
2023/02/21 05:54:35;;;;;;;10.10;3.85;;;6.40;99.90;;;;;;5089850;28;20177;-78
2023/02/21 05:57:01;;;;;;;4.45;2.85;;;6.40;99.90;;;;;;5089345;28;20485;-78
2023/02/21 05:59:27;;;;;;;6.13;3.45;;;6.40;99.90;;;;;;5092408;28;20099;-78
2023/02/21 06:01:53;;;;;;;7.43;4.18;;;6.30;99.90;;;;;;5087932;28;20081;-78
2023/02/21 06:04:19;;;;;;;8.07;3.75;;;6.30;99.90;;;;;;5070974;28;20028;-78
2023/02/21 06:06:45;;;;;;;8.52;3.97;;;6.30;99.90;;;;;;5069474;28;20075;-78
2023/02/21 06:09:16;;;;;;;7.47;3.75;;;6.30;99.90;;;;;;5088018;28;20488;-79
2023/02/21 06:11:41;;;;;;;10.27;4.28;;;6.20;99.90;;;;;;5089015;28;20485;-78
2023/02/21 06:14:16;;;;;;;11.35;3.90;;;6.20;99.90;;;;;;5084366;28;20104;-78
2023/02/21 06:16:42;;;;;;;15.00;4.60;;;6.10;99.90;;;;;;5082341;28;20455;-79
2023/02/21 06:19:09;;;;;;;10.75;4.50;;;6.20;99.90;;;;;;5088034;28;20028;-77
2023/02/21 06:21:35;;;;;;;10.48;4.63;;;6.20;99.90;;;;;;5086693;28;20028;-79
2023/02/21 06:24:04;;;;;;;6.95;3.78;;;6.10;99.90;;;;;;5073439;28;20433;-78
2023/02/21 06:26:30;;;;;;;10.80;4.20;;;6.10;99.90;;;;;;5087326;28;20070;-77
2023/02/21 06:28:56;;;;;;;6.40;4.35;;;6.10;99.90;;;;;;5075864;28;20016;-77
2023/02/21 06:31:22;;;;;;;10.98;4.32;;;6.10;99.90;;;;;;5086068;28;20077;-77
2023/02/21 06:33:48;;;;;;;6.00;3.80;;;6.10;99.90;;;;;;5088328;28;20020;-78
2023/02/21 06:36:18;;;;;;;11.38;4.85;;;6.10;99.90;;;;;;5090383;28;20035;-78
2023/02/21 06:38:46;;;;;;;9.88;4.10;;;6.10;99.90;;;;;;5089798;28;20547;-79
2023/02/21 06:41:14;;;;;;;8.10;4.07;;;6.10;99.90;;;;;;5086644;28;20379;-79
2023/02/21 06:43:40;;;;;;;11.80;4.82;;;6.10;99.90;;;;;;5085560;28;20111;-78
2023/02/21 06:46:06;;;;;;;5.97;4.28;;;6.00;99.90;;;;;;5088987;28;20144;-79
2023/02/21 06:48:32;;;;;;;7.75;4.13;;;6.00;99.90;;;;;;5088318;28;20028;-78
2023/02/21 06:50:58;;;;;;;8.98;4.13;;;6.00;99.90;;;;;;5085357;28;20043;-78
2023/02/21 06:53:23;;;;;;;8.63;4.05;;;6.00;99.90;;;;;;5085584;28;20055;-78
2023/02/21 06:55:49;;;;;;;10.50;4.80;;;6.10;99.90;;;;;;5073671;28;20089;-78
2023/02/21 06:58:15;;;;;;;7.95;3.83;;;6.00;99.90;;;;;;5086927;28;20035;-77
2023/02/21 07:00:41;;;;;;;8.23;4.43;;;6.10;99.90;;;;;;5077748;28;20063;-79
2023/02/21 07:03:07;;;;;;;10.40;4.55;;;6.10;99.90;;;;;;5081395;28;20036;-79
2023/02/21 07:05:37;;;;;;;10.23;4.70;;;6.10;99.90;;;;;;5085950;28;20032;-78
2023/02/21 07:08:03;;;;;;;7.68;4.60;;;6.10;99.90;;;;;;5080405;28;20024;-80
2023/02/21 07:10:29;;;;;;;10.80;4.30;;;6.20;99.90;;;;;;5078439;28;20039;-79
2023/02/21 07:12:56;;;;;;;7.97;4.18;;;6.20;99.90;;;;;;5067428;28;20055;-79
2023/02/21 07:15:21;;;;;;;10.30;4.50;;;6.30;99.90;;;;;;5071068;28;20078;-78
2023/02/21 07:17:47;;;;;;;7.75;4.70;;;6.30;99.90;;;;;;5073521;28;20432;-78
2023/02/21 07:20:13;;;;;;;8.10;4.35;;;6.40;99.90;;;;;;5078142;28;20111;-78
2023/02/21 07:22:39;;;;;;;10.82;4.68;;;6.40;99.90;;;;;;5084092;28;20032;-78
2023/02/21 07:25:05;;;;;;;12.80;4.60;;;6.40;99.90;;;;;;5083742;28;20024;-79
2023/02/21 07:27:31;;;;;;;9.07;4.47;;;6.40;99.90;;;;;;5102350;28;20052;-79
2023/02/21 07:29:57;;;;;;;10.23;4.72;;;6.50;99.90;;;;;;5064030;28;20059;-78
2023/02/21 07:32:22;;;;;;;6.43;4.30;;;6.50;99.90;;;;;;5087734;28;20028;-78
2023/02/21 07:34:48;;;;;;;8.80;4.53;;;6.60;99.90;;;;;;5083126;28;20040;-79
2023/02/21 07:37:14;;;;;;;8.57;4.57;;;6.60;99.90;;;;;;5080380;28;20036;-77
2023/02/21 07:39:40;;;;;;;11.55;4.72;;;6.70;99.90;;;;;;5086928;28;20036;-78
2023/02/21 07:42:09;;;;;;;9.48;4.22;;;6.90;99.90;;;;;;5076947;28;20641;-79
2023/02/21 07:44:35;;;;;;;7.75;4.65;;;7.30;99.90;;;;;;5082621;28;20420;-78
2023/02/21 07:47:01;;;;;;;7.57;4.75;;;7.70;99.90;;;;;;5085430;28;20028;-76
2023/02/21 07:49:27;;;;;;;7.70;4.47;;;8.10;99.90;;;;;;5088169;28;20077;-78
2023/02/21 07:51:52;;;;;;;9.27;4.82;;;8.40;99.90;;;;;;5054333;28;20435;-76
2023/02/21 07:54:18;;;;;;;7.03;4.60;;;8.70;99.90;;;;;;5072282;28;20624;-77
2023/02/21 07:56:47;;;;;;;7.93;4.05;;;9.10;99.90;;;;;;5072968;28;20048;-77
2023/02/21 07:59:13;;;;;;;9.93;4.32;;;9.30;99.90;;;;;;5079520;28;20038;-78
2023/02/21 08:01:39;;;;;;;10.25;4.57;;;9.30;99.90;;;;;;5079153;28;20073;-77
2023/02/21 08:04:05;;;;;;;7.60;4.70;;;9.30;99.90;;;;;;5080159;28;20028;-78
2023/02/21 08:06:33;;;;;;;10.43;4.90;;;9.30;99.90;;;;;;5081113;28;20028;-78
2023/02/21 08:08:59;;;;;;;9.02;4.53;;;9.10;99.90;;;;;;5064035;28;20033;-78
2023/02/21 08:11:25;;;;;;;12.60;4.68;;;9.10;99.90;;;;;;5079604;28;20024;-78
2023/02/21 08:13:51;;;;;;;7.80;4.50;;;9.10;99.90;;;;;;5087235;28;20111;-78
2023/02/21 08:16:17;;;;;;;9.30;4.97;;;9.20;99.90;;;;;;5082351;28;20032;-78
2023/02/21 08:18:45;;;;;;;8.43;4.43;;;9.40;99.90;;;;;;5078978;28;20040;-79
2023/02/21 08:21:11;;;;;;;11.10;4.63;;;9.60;99.90;;;;;;5079516;28;20488;-78
2023/02/21 08:23:37;;;;;;;9.60;3.30;;;9.60;99.90;;;;;;5079528;28;20043;-78
2023/02/21 08:26:04;;;;;;;10.00;4.50;;;9.70;99.90;;;;;;5086050;28;20039;-78
2023/02/21 08:28:30;;;;;;;8.80;4.60;;;9.60;99.90;;;;;;5088541;28;20020;-78
2023/02/21 08:30:56;;;;;;;7.85;4.93;;;9.60;99.90;;;;;;5081818;28;20034;-78
2023/02/21 08:33:22;;;;;;;8.50;4.25;;;9.50;99.90;;;;;;5076526;28;20062;-78
2023/02/21 08:35:48;;;;;;;7.95;4.93;;;9.50;99.90;;;;;;5058770;28;20029;-78
2023/02/21 08:38:14;;;;;;;8.52;4.00;;;9.40;99.90;;;;;;5084963;28;20540;-78
2023/02/21 08:40:40;;;;;;;8.52;3.92;;;9.20;99.90;;;;;;5085331;28;20032;-78
2023/02/21 08:43:05;;;;;;;10.02;4.43;;;9.10;99.90;;;;;;5088338;28;20032;-78
2023/02/21 08:45:32;;;;;;;10.65;5.43;;;8.90;99.90;;;;;;5088402;28;20049;-77
2023/02/21 08:47:58;;;;;;;7.60;4.50;;;8.80;99.90;;;;;;5084787;28;20028;-78
2023/02/21 08:50:26;;;;;;;11.30;5.43;;;8.80;99.90;;;;;;5081868;28;20059;-78
2023/02/21 08:52:53;;;;;;;14.48;5.35;;;8.70;99.90;;;;;;5084678;28;20060;-78
2023/02/21 08:55:19;;;;;;;8.05;4.55;;;8.60;99.90;;;;;;5076089;28;20032;-78
2023/02/21 08:57:51;;;;;;;11.65;4.93;;;8.50;99.90;;;;;;5078198;28;20028;-78
2023/02/21 09:00:18;;;;;;;12.88;5.45;;;8.60;99.90;;;;;;5088076;28;20036;-77
2023/02/21 09:02:44;;;;;;;7.97;4.65;;;8.50;99.90;;;;;;5079212;28;20395;-78
2023/02/21 09:05:15;;;;;;;8.55;4.85;;;8.50;99.90;;;;;;5080992;28;20088;-79
2023/02/21 09:07:41;;;;;;;7.97;4.55;;;8.50;99.90;;;;;;5086445;28;20500;-78
2023/02/21 09:10:09;;;;;;;9.25;5.13;;;8.50;99.90;;;;;;5086555;28;20020;-77
2023/02/21 09:12:35;;;;;;;8.65;4.88;;;8.50;99.90;;;;;;5081882;28;20114;-78
2023/02/21 09:15:01;;;;;;;9.90;4.90;;;8.50;99.90;;;;;;5083658;28;20498;-78
2023/02/21 09:17:27;;;;;;;10.27;4.97;;;8.50;99.90;;;;;;5086790;28;20043;-78
2023/02/21 09:19:53;;;;;;;12.27;4.88;;;8.60;99.90;;;;;;5081985;28;20029;-78
2023/02/21 09:22:19;;;;;;;8.60;5.60;;;8.60;99.90;;;;;;5078212;28;20032;-78
2023/02/21 09:24:44;;;;;;;8.93;5.32;;;8.70;99.90;;;;;;5083601;28;20060;-78
2023/02/21 09:27:11;;;;;;;8.90;4.95;;;8.80;99.90;;;;;;5085086;28;20142;-78
2023/02/21 09:29:37;;;;;;;12.40;5.55;;;8.90;99.90;;;;;;5081011;28;20124;-78
2023/02/21 09:32:03;;;;;;;10.45;4.93;;;9.00;99.90;;;;;;5086160;28;20107;-78
2023/02/21 09:34:29;;;;;;;11.88;5.63;;;9.10;99.90;;;;;;5086184;28;20031;-78
2023/02/21 09:36:55;;;;;;;9.32;5.35;;;9.10;99.90;;;;;;5081512;28;20406;-77
2023/02/21 09:39:22;;;;;;;8.95;4.47;;;9.30;99.90;;;;;;5082703;28;20035;-78
2023/02/21 09:41:49;;;;;;;9.35;4.95;;;9.30;99.90;;;;;;5078348;28;20075;-78
2023/02/21 09:44:22;;;;;;;9.82;4.65;;;9.40;99.90;;;;;;5087020;28;20358;-78
2023/02/21 09:46:51;;;;;;;10.95;5.22;;;9.50;99.90;;;;;;5084760;28;20032;-77
2023/02/21 09:49:34;;;;;;;9.73;5.28;;;9.60;99.90;;;;;;5078857;28;20042;-79
2023/02/21 09:52:01;;;;;;;9.35;4.95;;;9.60;99.90;;;;;;5084074;28;20369;-77
2023/02/21 09:54:46;;;;;;;9.90;5.70;;;9.70;99.90;;;;;;5076708;28;20416;-78
2023/02/21 09:57:15;;;;;;;10.07;4.97;;;9.70;99.90;;;;;;5089824;28;20469;-78
2023/02/21 09:59:41;;;;;;;10.43;5.43;;;9.70;99.90;;;;;;5074342;28;20072;-79
2023/02/21 10:02:12;;;;;;;10.68;5.55;;;9.80;99.90;;;;;;5085675;28;20046;-78
2023/02/21 10:05:01;;;;;;;7.82;5.53;;;9.70;99.90;;;;;;5083783;28;20093;-77
2023/02/21 10:07:52;;;;;;;9.40;5.07;;;9.70;99.90;;;;;;5088608;28;20116;-78
2023/02/21 10:10:21;;;;;;;10.15;5.95;;;9.70;99.90;;;;;;5083262;28;20468;-78
2023/02/21 10:13:00;;;;;;;10.52;5.20;;;9.70;99.90;;;;;;5087803;28;20107;-79
2023/02/21 10:15:39;;;;;;;10.48;5.15;;;9.70;99.90;;;;;;5089150;28;20114;-77
2023/02/21 10:18:36;;;;;;;9.70;5.20;;;9.80;99.90;;;;;;5089875;28;20036;-78
2023/02/21 10:21:08;;;;;;;9.68;5.32;;;9.80;99.90;;;;;;5075878;28;20036;-78
2023/02/21 10:23:41;;;;;;;7.30;4.38;;;9.80;99.90;;;;;;5086066;28;20043;-78
2023/02/21 10:26:11;;;;;;;7.43;4.93;;;9.90;99.90;;;;;;5089208;28;20035;-78
2023/02/21 10:28:38;;;;;;;10.13;5.55;;;9.90;99.90;;;;;;5090219;28;20650;-77
2023/02/21 10:31:34;;;;;;;10.70;5.07;;;9.90;99.90;;;;;;5080447;28;20055;-78
2023/02/21 10:34:04;;;;;;;8.73;4.90;;;9.90;99.90;;;;;;5084105;28;20032;-78
2023/02/21 10:36:30;;;;;;;9.48;4.80;;;10.00;99.90;;;;;;5082717;28;20044;-78
2023/02/21 10:39:03;;;;;;;8.40;5.18;;;10.00;99.90;;;;;;5084486;28;20033;-78
2023/02/21 10:41:33;;;;;;;9.48;4.88;;;10.10;99.90;;;;;;5079358;28;20032;-76
2023/02/21 10:44:08;;;;;;;7.72;4.88;;;10.20;99.90;;;;;;5087377;28;20087;-78
2023/02/21 10:46:43;;;;;;;9.67;4.57;;;10.20;99.90;;;;;;5082563;28;20409;-80
2023/02/21 10:49:32;;;;;;;7.78;4.43;;;10.20;99.90;;;;;;5086016;28;20024;-77
2023/02/21 10:52:05;;;;;;;8.75;5.15;;;10.30;99.90;;;;;;5074611;28;20507;-78
2023/02/21 10:54:31;;;;;;;9.90;4.63;;;10.30;99.90;;;;;;5082626;28;20394;-78
2023/02/21 10:57:01;;;;;;;7.68;4.88;;;10.40;99.90;;;;;;5084161;28;20028;-78
2023/02/21 10:59:28;;;;;;;8.82;4.70;;;10.50;99.90;;;;;;5089344;28;20035;-78
2023/02/21 11:01:56;;;;;;;7.40;4.63;;;10.50;99.90;;;;;;5065274;28;20028;-78
2023/02/21 11:04:27;;;;;;;8.32;4.68;;;10.60;99.90;;;;;;5085262;28;20111;-78
2023/02/21 11:07:07;;;;;;;7.28;4.60;;;10.70;99.90;;;;;;5065463;28;20036;-78
2023/02/21 11:09:36;;;;;;;8.07;4.72;;;10.80;99.90;;;;;;5087622;28;20028;-79
2023/02/21 11:12:24;;;;;;;6.60;4.05;;;10.90;99.90;;;;;;5086177;28;20158;-78
2023/02/21 11:14:49;;;;;;;8.50;4.60;;;11.00;99.90;;;;;;5083339;28;20024;-78
2023/02/21 11:17:17;;;;;;;6.65;3.70;;;11.10;99.90;;;;;;5086267;28;20039;-78
2023/02/21 11:19:46;;;;;;;7.70;3.85;;;11.20;99.90;;;;;;5085257;28;20235;-77
2023/02/21 11:22:13;;;;;;;8.27;3.97;;;11.30;99.90;;;;;;5079466;28;20040;-78
2023/02/21 11:24:58;;;;;;;5.63;3.70;;;11.30;99.90;;;;;;5086676;28;20054;-78
2023/02/21 11:27:25;;;;;;;5.90;4.28;;;11.40;99.90;;;;;;5079138;28;20456;-78
2023/02/21 11:29:53;;;;;;;9.50;4.63;;;11.50;99.90;;;;;;5086809;28;20503;-78
2023/02/21 11:32:40;;;;;;;8.70;3.80;;;11.60;99.90;;;;;;5082564;28;20029;-78
2023/02/21 11:35:21;;;;;;;8.10;3.40;;;11.80;99.90;;;;;;5083179;28;20028;-78
2023/02/21 11:37:50;;;;;;;10.75;3.80;;;11.90;99.90;;;;;;5082627;28;20492;-78
2023/02/21 11:40:31;;;;;;;5.88;3.55;;;11.90;99.90;;;;;;5086556;28;20609;-78
2023/02/21 11:43:29;;;;;;;6.30;3.55;;;12.00;99.90;;;;;;5085930;28;20058;-78
2023/02/21 11:46:04;;;;;;;5.65;3.10;;;12.00;99.90;;;;;;5078354;28;20127;-78
2023/02/21 11:48:52;;;;;;;4.80;3.23;;;12.00;99.90;;;;;;5088782;28;20039;-78
2023/02/21 11:51:38;;;;;;;8.68;3.90;;;11.90;99.90;;;;;;5082830;28;20020;-78
2023/02/21 11:54:05;;;;;;;3.88;3.10;;;12.00;99.90;;;;;;5076078;28;20028;-77
2023/02/21 11:56:44;;;;;;;5.65;3.13;;;12.00;99.90;;;;;;5081833;28;20031;-78
2023/02/21 11:59:29;;;;;;;6.03;2.92;;;12.00;99.90;;;;;;5079613;28;20031;-78
2023/02/21 12:02:04;;;;;;;4.32;2.95;;;12.10;99.90;;;;;;5083203;28;20040;-78
2023/02/21 12:04:51;;;;;;;5.85;2.78;;;12.10;99.90;;;;;;5078039;28;20502;-78
2023/02/21 12:07:46;;;;;;;3.65;2.58;;;12.10;99.90;;;;;;5073724;28;20032;-77
2023/02/21 12:10:20;;;;;;;4.57;2.50;;;12.20;99.90;;;;;;5083872;28;20028;-77
2023/02/21 12:12:50;;;;;;;3.30;1.95;;;12.20;99.90;;;;;;5079843;28;20051;-78
2023/02/21 12:15:34;;;;;;;5.72;2.50;;;12.10;99.90;;;;;;5088297;28;20066;-78
2023/02/21 12:18:23;;;;;;;2.97;2.10;;;12.20;99.90;;;;;;5078152;28;20499;-78
2023/02/21 12:21:26;;;;;;;3.20;1.90;;;12.20;99.90;;;;;;5084361;28;20032;-77
2023/02/21 12:24:20;;;;;;;4.35;1.85;;;12.30;99.90;;;;;;5083677;28;20459;-78
2023/02/21 12:26:57;;;;;;;3.60;1.77;;;12.30;99.90;;;;;;5083514;28;20028;-78
2023/02/21 12:29:40;;;;;;;3.53;1.77;;;12.20;99.90;;;;;;5080030;28;20028;-77
2023/02/21 12:32:44;;;;;;;2.80;1.73;;;12.10;99.90;;;;;;5077573;28;20066;-78
2023/02/21 12:35:47;;;;;;;2.60;1.35;;;12.10;99.90;;;;;;5079420;28;20024;-77
2023/02/21 12:38:40;;;;;;;1.73;1.38;;;11.90;99.90;;;;;;5074617;28;20449;-77
2023/02/21 12:41:44;;;;;;;2.40;1.60;;;11.80;99.90;;;;;;5069405;28;20408;-77
2023/02/21 12:44:33;;;;;;;2.75;1.77;;;11.80;99.90;;;;;;5075941;28;20016;-76
2023/02/21 12:47:14;;;;;;;2.80;1.40;;;11.70;99.90;;;;;;5085489;28;20055;-77
2023/02/21 12:49:50;;;;;;;3.05;1.75;;;11.80;99.90;;;;;;5087833;28;20047;-76
2023/02/21 12:52:27;;;;;;;2.50;1.65;;;11.80;99.90;;;;;;5081673;28;20035;-78
2023/02/21 12:55:22;;;;;;;2.25;1.45;;;11.80;99.90;;;;;;5083225;28;20021;-77
2023/02/21 12:58:02;;;;;;;4.78;1.70;;;11.90;99.90;;;;;;5085466;28;20024;-77
2023/02/21 13:00:37;;;;;;;2.30;1.25;;;12.00;99.90;;;;;;5083813;28;20054;-77
2023/02/21 13:03:22;;;;;;;2.60;1.63;;;12.10;99.90;;;;;;5086256;28;20017;-77
2023/02/21 13:06:05;;;;;;;3.05;1.83;;;12.20;99.90;;;;;;5082642;28;20032;-77
2023/02/21 13:08:45;;;;;;;2.60;1.60;;;12.30;99.90;;;;;;5083780;28;20051;-76
2023/02/21 13:12:05;;;;;;;3.28;2.10;;;12.40;99.90;;;;;;5077600;28;20031;-77
2023/02/21 13:14:40;;;;;;;3.72;2.10;;;12.50;99.90;;;;;;5020606;28;20040;-77
2023/02/21 13:17:10;;;;;;;3.05;1.88;;;12.60;99.90;;;;;;5003601;28;20037;-77
2023/02/21 13:20:03;;;;;;;2.83;2.25;;;12.50;99.90;;;;;;5054502;28;20052;-77
2023/02/21 13:26:28;;;;;;;4.40;2.13;;;12.60;99.90;;;;;;5060609;28;20025;-77
2023/02/21 13:28:56;;;;;;;3.65;1.80;;;12.70;99.90;;;;;;5065814;28;20033;-78
2023/02/21 13:31:37;;;;;;;4.93;2.03;;;12.60;99.90;;;;;;5069152;28;20071;-77
2023/02/21 13:34:07;;;;;;;2.30;1.60;;;12.70;99.90;;;;;;5071029;28;20082;-78
2023/02/21 13:36:42;;;;;;;1.92;1.55;;;12.70;99.90;;;;;;5068615;28;20078;-77
2023/02/21 13:39:08;;;;;;;3.35;1.73;;;12.80;99.90;;;;;;5070800;28;20029;-77
2023/02/21 13:41:49;;;;;;;3.13;2.42;;;12.70;99.90;;;;;;5065047;28;20036;-77
2023/02/21 13:44:32;;;;;;;4.60;2.00;;;12.70;99.90;;;;;;5062815;28;20511;-77
2023/02/21 13:47:09;;;;;;;3.22;2.20;;;12.80;99.90;;;;;;5064465;28;20025;-77
2023/02/21 13:49:41;;;;;;;5.57;2.05;;;12.70;99.90;;;;;;5061582;28;20083;-77
2023/02/21 13:52:22;;;;;;;3.00;1.60;;;12.60;99.90;;;;;;5064856;28;20034;-77
2023/02/21 13:55:20;;;;;;;6.32;1.90;;;12.60;99.90;;;;;;5065373;28;20040;-78
2023/02/21 13:57:59;;;;;;;2.78;1.60;;;12.50;99.90;;;;;;5062262;28;20036;-78
2023/02/21 14:00:25;;;;;;;1.83;1.23;;;12.50;99.90;;;;;;5062021;28;20413;-78
2023/02/21 14:03:16;;;;;;;3.55;1.35;;;12.50;99.90;;;;;;5067915;28;20022;-77
2023/02/21 14:05:54;;;;;;;5.20;1.88;;;12.50;99.90;;;;;;5067449;28;20047;-77
2023/02/21 14:08:44;;;;;;;2.88;2.00;;;12.50;99.90;;;;;;5068904;28;20074;-78
2023/02/21 14:11:21;;;;;;;14.68;2.83;;;12.40;99.90;;;;;;5066745;28;20591;-77
2023/02/21 14:13:54;;;;;;;3.85;1.65;;;12.40;99.90;;;;;;5069704;28;20033;-77
2023/02/21 14:16:35;;;;;;;6.07;1.90;;;12.40;99.90;;;;;;5061747;28;20074;-77
2023/02/21 14:19:05;;;;;;;2.60;1.60;;;12.40;99.90;;;;;;5069270;28;20021;-78
2023/02/21 14:21:37;;;;;;;2.20;1.33;;;12.40;99.90;;;;;;5067366;28;20103;-78
2023/02/21 14:24:08;;;;;;;3.80;1.60;;;12.40;99.90;;;;;;5065118;28;20431;-78
2023/02/21 14:26:42;;;;;;;2.08;1.42;;;12.30;99.90;;;;;;5069070;28;20552;-77
2023/02/21 14:29:08;;;;;;;4.82;1.80;;;12.30;99.90;;;;;;5066989;28;20025;-77
2023/02/21 14:31:48;;;;;;;4.93;2.40;;;12.40;99.90;;;;;;5060957;28;20079;-77
2023/02/21 14:34:20;;;;;;;4.55;2.22;;;12.40;99.90;;;;;;5068883;28;20025;-77
2023/02/21 14:36:48;;;;;;;2.45;1.67;;;12.60;99.90;;;;;;5069237;28;20074;-77
2023/02/21 14:39:16;;;;;;;3.17;1.60;;;12.60;99.90;;;;;;5075339;28;20055;-77
2023/02/21 14:41:41;;;;;;;2.75;1.77;;;12.60;99.90;;;;;;5065544;28;20029;-77
2023/02/21 14:44:32;;;;;;;6.05;2.35;;;12.70;99.90;;;;;;5061662;28;20036;-77
2023/02/21 14:47:12;;;;;;;3.40;1.38;;;12.70;99.90;;;;;;5052152;28;20032;-77
2023/02/21 14:50:02;;;;;;;3.75;2.00;;;12.70;99.90;;;;;;5068005;28;20031;-78
2023/02/21 14:52:54;;;;;;;4.55;2.13;;;12.60;99.90;;;;;;5065935;28;20066;-77
2023/02/21 14:55:49;;;;;;;2.95;2.13;;;12.60;99.90;;;;;;5041659;28;20043;-77
2023/02/21 14:58:43;;;;;;;3.53;1.88;;;12.50;99.90;;;;;;5063933;28;20020;-76
2023/02/21 15:01:18;;;;;;;1.98;1.40;;;12.50;99.90;;;;;;5065179;28;20017;-77
2023/02/21 15:03:51;;;;;;;2.00;1.80;;;12.40;99.90;;;;;;5068380;28;20044;-77
2023/02/21 15:06:21;;;;;;;2.13;1.45;;;12.30;99.90;;;;;;5069169;28;20028;-77
2023/02/21 15:08:50;;;;;;;3.67;1.75;;;12.20;99.90;;;;;;5070115;28;20419;-77
2023/02/21 15:11:35;;;;;;;2.25;1.40;;;12.10;99.90;;;;;;5072367;28;20028;-76
2023/02/21 15:14:22;;;;;;;4.30;1.48;;;12.10;99.90;;;;;;5069892;28;20450;-77
2023/02/21 15:16:55;;;;;;;2.03;1.25;;;12.10;99.90;;;;;;5066056;28;20067;-78
2023/02/21 15:19:31;;;;;;;2.13;1.08;;;12.10;99.90;;;;;;5066970;28;20063;-77
2023/02/21 15:22:20;;;;;;;2.42;1.27;;;12.10;99.90;;;;;;5064405;28;20126;-77
2023/02/21 15:25:07;;;;;;;1.77;1.10;;;12.10;99.90;;;;;;5070574;28;20119;-78
2023/02/21 15:27:51;;;;;;;2.28;0.93;;;12.10;99.90;;;;;;5069030;28;20028;-76
2023/02/21 15:30:30;;;;;;;2.75;1.05;;;12.10;99.90;;;;;;5080898;28;20029;-76
2023/02/21 15:32:58;;;;;;;2.47;0.90;;;12.00;99.90;;;;;;5068076;28;20032;-77
2023/02/21 15:35:41;;;;;;;0.95;0.88;;;11.90;99.90;;;;;;5067969;28;20017;-77
2023/02/21 15:38:16;;;;;;;1.20;0.90;;;11.80;99.90;;;;;;5068443;28;20032;-75
2023/02/21 15:40:42;;;;;;;1.67;1.00;;;11.70;99.90;;;;;;5070198;28;20051;-77